sensor_id;sensor_type;location;lat;lon;timestamp;pressure;altitude;pressure_sealevel;temperature;humidity
75815;BME280;70031;45.570;14.228;2023-07-29T00:01:21;96856.75;;;15.04;100.00
75815;BME280;70031;45.570;14.228;2023-07-29T00:03:22;96849.09;;;14.97;100.00
75815;BME280;70031;45.570;14.228;2023-07-29T00:05:22;96860.59;;;15.03;100.00
75815;BME280;70031;45.570;14.228;2023-07-29T00:07:23;96862.34;;;14.99;100.00
75815;BME280;70031;45.570;14.228;2023-07-29T00:09:23;96860.44;;;14.99;100.00
75815;BME280;70031;45.570;14.228;2023-07-29T00:11:23;96857.88;;;14.94;100.00
75815;BME280;70031;45.570;14.228;2023-07-29T00:13:24;96853.09;;;15.00;100.00
75815;BME280;70031;45.570;14.228;2023-07-29T00:15:24;96855.97;;;15.03;100.00
75815;BME280;70031;45.570;14.228;2023-07-29T00:17:25;96857.25;;;15.06;100.00
75815;BME280;70031;45.570;14.228;2023-07-29T00:19:25;96862.19;;;15.12;100.00
75815;BME280;70031;45.570;14.228;2023-07-29T00:21:25;96847.53;;;15.22;100.00
75815;BME280;70031;45.570;14.228;2023-07-29T00:23:26;96847.88;;;15.21;100.00
75815;BME280;70031;45.570;14.228;2023-07-29T00:25:26;96849.28;;;15.09;100.00
75815;BME280;70031;45.570;14.228;2023-07-29T00:27:26;96845.59;;;15.05;100.00
75815;BME280;70031;45.570;14.228;2023-07-29T00:29:27;96843.22;;;15.04;100.00
75815;BME280;70031;45.570;14.228;2023-07-29T00:31:27;96839.56;;;15.00;100.00
75815;BME280;70031;45.570;14.228;2023-07-29T00:33:28;96835.38;;;14.94;100.00
75815;BME280;70031;45.570;14.228;2023-07-29T00:35:28;96837.63;;;14.92;100.00
75815;BME280;70031;45.570;14.228;2023-07-29T00:37:29;96843.97;;;14.87;100.00
75815;BME280;70031;45.570;14.228;2023-07-29T00:39:30;96846.66;;;14.78;100.00
75815;BME280;70031;45.570;14.228;2023-07-29T00:41:30;96844.94;;;14.82;100.00
75815;BME280;70031;45.570;14.228;2023-07-29T00:43:31;96844.97;;;14.91;100.00
75815;BME280;70031;45.570;14.228;2023-07-29T00:45:32;96842.25;;;14.91;100.00
75815;BME280;70031;45.570;14.228;2023-07-29T00:47:33;96849.59;;;14.91;100.00
75815;BME280;70031;45.570;14.228;2023-07-29T00:49:33;96850.19;;;14.87;100.00
75815;BME280;70031;45.570;14.228;2023-07-29T00:51:34;96846.06;;;14.81;100.00
75815;BME280;70031;45.570;14.228;2023-07-29T00:53:34;96850.19;;;14.87;100.00
75815;BME280;70031;45.570;14.228;2023-07-29T00:55:35;96848.28;;;14.88;100.00
75815;BME280;70031;45.570;14.228;2023-07-29T00:57:35;96847.00;;;14.85;100.00
75815;BME280;70031;45.570;14.228;2023-07-29T00:59:36;96845.41;;;14.84;100.00
75815;BME280;70031;45.570;14.228;2023-07-29T01:01:36;96842.53;;;14.81;100.00
75815;BME280;70031;45.570;14.228;2023-07-29T01:03:37;96845.41;;;14.84;100.00
75815;BME280;70031;45.570;14.228;2023-07-29T01:05:50;96839.53;;;14.82;100.00
75815;BME280;70031;45.570;14.228;2023-07-29T01:10:01;96845.41;;;14.84;100.00
75815;BME280;70031;45.570;14.228;2023-07-29T01:12:11;96844.63;;;14.84;100.00
75815;BME280;70031;45.570;14.228;2023-07-29T01:14:46;96838.19;;;14.71;100.00
75815;BME280;70031;45.570;14.228;2023-07-29T01:16:52;96833.03;;;14.52;100.00
75815;BME280;70031;45.570;14.228;2023-07-29T01:18:55;96839.47;;;14.34;100.00
75815;BME280;70031;45.570;14.228;2023-07-29T01:20:59;96840.59;;;14.33;100.00
75815;BME280;70031;45.570;14.228;2023-07-29T01:22:59;96837.25;;;14.36;100.00
75815;BME280;70031;45.570;14.228;2023-07-29T01:25:00;96841.16;;;14.52;100.00
75815;BME280;70031;45.570;14.228;2023-07-29T01:27:00;96835.59;;;14.49;100.00
75815;BME280;70031;45.570;14.228;2023-07-29T01:29:01;96838.78;;;14.51;100.00
75815;BME280;70031;45.570;14.228;2023-07-29T01:31:03;96830.34;;;14.52;100.00
75815;BME280;70031;45.570;14.228;2023-07-29T01:33:26;96830.03;;;14.54;100.00
75815;BME280;70031;45.570;14.228;2023-07-29T01:37:32;96820.53;;;14.34;100.00
75815;BME280;70031;45.570;14.228;2023-07-29T01:39:36;96817.56;;;14.13;100.00
75815;BME280;70031;45.570;14.228;2023-07-29T01:41:37;96822.81;;;14.10;100.00
75815;BME280;70031;45.570;14.228;2023-07-29T01:43:37;96817.38;;;14.10;100.00
75815;BME280;70031;45.570;14.228;2023-07-29T01:45:44;96824.91;;;14.21;100.00
75815;BME280;70031;45.570;14.228;2023-07-29T01:47:45;96823.00;;;14.22;100.00
75815;BME280;70031;45.570;14.228;2023-07-29T01:49:45;96829.72;;;14.24;100.00
75815;BME280;70031;45.570;14.228;2023-07-29T01:51:45;96836.09;;;14.28;100.00
75815;BME280;70031;45.570;14.228;2023-07-29T01:53:46;96827.19;;;14.28;100.00
75815;BME280;70031;45.570;14.228;2023-07-29T01:55:47;96831.19;;;14.39;100.00
75815;BME280;70031;45.570;14.228;2023-07-29T01:57:47;96831.88;;;14.45;100.00
75815;BME280;70031;45.570;14.228;2023-07-29T01:59:47;96827.31;;;14.54;100.00
75815;BME280;70031;45.570;14.228;2023-07-29T02:01:48;96831.19;;;14.70;100.00
75815;BME280;70031;45.570;14.228;2023-07-29T02:03:49;96833.91;;;14.79;100.00
75815;BME280;70031;45.570;14.228;2023-07-29T02:05:54;96820.34;;;14.70;100.00
75815;BME280;70031;45.570;14.228;2023-07-29T02:07:55;96822.75;;;14.72;100.00
75815;BME280;70031;45.570;14.228;2023-07-29T02:09:55;96829.13;;;14.76;100.00
75815;BME280;70031;45.570;14.228;2023-07-29T02:11:56;96828.38;;;14.93;100.00
75815;BME280;70031;45.570;14.228;2023-07-29T02:13:56;96833.69;;;15.06;100.00
75815;BME280;70031;45.570;14.228;2023-07-29T02:15:57;96822.97;;;15.01;100.00
75815;BME280;70031;45.570;14.228;2023-07-29T02:17:57;96822.00;;;15.06;100.00
75815;BME280;70031;45.570;14.228;2023-07-29T02:19:59;96830.13;;;15.06;100.00
75815;BME280;70031;45.570;14.228;2023-07-29T02:22:00;96819.94;;;14.94;100.00
75815;BME280;70031;45.570;14.228;2023-07-29T02:24:00;96813.38;;;14.86;100.00
75815;BME280;70031;45.570;14.228;2023-07-29T02:26:01;96819.44;;;14.83;100.00
75815;BME280;70031;45.570;14.228;2023-07-29T02:28:01;96815.75;;;14.79;100.00
75815;BME280;70031;45.570;14.228;2023-07-29T02:30:04;96823.72;;;14.76;100.00
75815;BME280;70031;45.570;14.228;2023-07-29T02:32:04;96822.44;;;14.73;100.00
75815;BME280;70031;45.570;14.228;2023-07-29T02:34:05;96829.47;;;14.74;100.00
75815;BME280;70031;45.570;14.228;2023-07-29T02:36:05;96841.88;;;14.67;100.00
75815;BME280;70031;45.570;14.228;2023-07-29T02:38:05;96838.06;;;14.76;100.00
75815;BME280;70031;45.570;14.228;2023-07-29T02:40:06;96841.25;;;14.78;100.00
75815;BME280;70031;45.570;14.228;2023-07-29T02:42:07;96846.38;;;14.88;100.00
75815;BME280;70031;45.570;14.228;2023-07-29T02:44:08;96846.06;;;14.90;100.00
75815;BME280;70031;45.570;14.228;2023-07-29T02:46:09;96843.03;;;14.92;100.00
75815;BME280;70031;45.570;14.228;2023-07-29T02:48:09;96836.97;;;14.95;100.00
75815;BME280;70031;45.570;14.228;2023-07-29T02:50:09;96844.63;;;14.93;100.00
75815;BME280;70031;45.570;14.228;2023-07-29T02:52:10;96843.03;;;14.92;100.00
75815;BME280;70031;45.570;14.228;2023-07-29T02:54:10;96843.38;;;14.99;100.00
75815;BME280;70031;45.570;14.228;2023-07-29T02:56:11;96842.88;;;14.97;100.00
75815;BME280;70031;45.570;14.228;2023-07-29T02:58:14;96853.25;;;14.95;100.00
75815;BME280;70031;45.570;14.228;2023-07-29T03:00:14;96858.06;;;14.98;100.00
75815;BME280;70031;45.570;14.228;2023-07-29T03:02:15;96861.72;;;15.02;100.00
75815;BME280;70031;45.570;14.228;2023-07-29T03:04:16;96856.28;;;15.02;100.00
75815;BME280;70031;45.570;14.228;2023-07-29T03:06:16;96855.50;;;15.01;100.00
75815;BME280;70031;45.570;14.228;2023-07-29T03:08:17;96856.13;;;14.98;100.00
75815;BME280;70031;45.570;14.228;2023-07-29T03:10:17;96856.44;;;14.97;100.00
75815;BME280;70031;45.570;14.228;2023-07-29T03:12:17;96851.19;;;15.00;100.00
75815;BME280;70031;45.570;14.228;2023-07-29T03:14:18;96853.25;;;14.95;100.00
75815;BME280;70031;45.570;14.228;2023-07-29T03:16:18;96860.09;;;14.92;100.00
75815;BME280;70031;45.570;14.228;2023-07-29T03:18:18;96864.25;;;14.98;100.00
75815;BME280;70031;45.570;14.228;2023-07-29T03:20:19;96862.97;;;15.04;100.00
75815;BME280;70031;45.570;14.228;2023-07-29T03:22:20;96867.47;;;15.09;100.00
75815;BME280;70031;45.570;14.228;2023-07-29T03:24:20;96865.56;;;15.09;100.00
75815;BME280;70031;45.570;14.228;2023-07-29T03:26:20;96862.81;;;15.01;100.00
75815;BME280;70031;45.570;14.228;2023-07-29T03:28:21;96848.47;;;14.92;100.00
75815;BME280;70031;45.570;14.228;2023-07-29T03:30:22;96857.38;;;14.83;100.00
75815;BME280;70031;45.570;14.228;2023-07-29T03:32:22;96861.19;;;14.82;100.00
75815;BME280;70031;45.570;14.228;2023-07-29T03:34:23;96858.16;;;14.84;100.00
75815;BME280;70031;45.570;14.228;2023-07-29T03:36:23;96861.03;;;14.87;100.00
75815;BME280;70031;45.570;14.228;2023-07-29T03:38:25;96862.78;;;14.83;100.00
75815;BME280;70031;45.570;14.228;2023-07-29T03:40:26;96862.91;;;14.78;100.00
75815;BME280;70031;45.570;14.228;2023-07-29T03:42:26;96849.69;;;14.77;100.00
75815;BME280;70031;45.570;14.228;2023-07-29T03:44:26;96856.97;;;14.59;100.00
75815;BME280;70031;45.570;14.228;2023-07-29T03:46:27;96862.66;;;14.49;100.00
75815;BME280;70031;45.570;14.228;2023-07-29T03:48:27;96862.16;;;14.47;100.00
75815;BME280;70031;45.570;14.228;2023-07-29T03:50:28;96856.56;;;14.43;100.00
75815;BME280;70031;45.570;14.228;2023-07-29T03:52:29;96861.25;;;14.51;100.00
75815;BME280;70031;45.570;14.228;2023-07-29T03:54:29;96854.72;;;14.52;100.00
75815;BME280;70031;45.570;14.228;2023-07-29T03:56:32;96868.72;;;14.54;100.00
75815;BME280;70031;45.570;14.228;2023-07-29T03:58:35;96870.19;;;14.60;100.00
75815;BME280;70031;45.570;14.228;2023-07-29T04:00:35;96880.75;;;14.71;100.00
75815;BME280;70031;45.570;14.228;2023-07-29T04:02:36;96878.03;;;14.71;100.00
75815;BME280;70031;45.570;14.228;2023-07-29T04:04:39;96866.59;;;14.74;100.00
75815;BME280;70031;45.570;14.228;2023-07-29T04:06:41;96859.38;;;14.69;100.00
75815;BME280;70031;45.570;14.228;2023-07-29T04:08:42;96862.72;;;14.57;100.00
75815;BME280;70031;45.570;14.228;2023-07-29T04:10:42;96863.50;;;14.58;100.00
75815;BME280;70031;45.570;14.228;2023-07-29T04:12:43;96856.63;;;14.52;100.00
75815;BME280;70031;45.570;14.228;2023-07-29T04:14:43;96858.34;;;14.48;100.00
75815;BME280;70031;45.570;14.228;2023-07-29T04:16:43;96861.19;;;14.43;100.00
75815;BME280;70031;45.570;14.228;2023-07-29T04:18:45;96865.59;;;14.39;100.00
75815;BME280;70031;45.570;14.228;2023-07-29T04:20:45;96873.13;;;14.42;100.00
75815;BME280;70031;45.570;14.228;2023-07-29T04:22:46;96877.00;;;14.49;100.00
75815;BME280;70031;45.570;14.228;2023-07-29T04:24:49;96880.34;;;14.55;100.00
75815;BME280;70031;45.570;14.228;2023-07-29T04:27:03;96882.16;;;14.59;100.00
75815;BME280;70031;45.570;14.228;2023-07-29T04:29:06;96890.44;;;14.63;100.00
75815;BME280;70031;45.570;14.228;2023-07-29T04:31:07;96881.88;;;14.78;100.00
75815;BME280;70031;45.570;14.228;2023-07-29T04:33:25;96891.06;;;14.60;100.00
75815;BME280;70031;45.570;14.228;2023-07-29T04:35:43;96888.50;;;14.64;100.00
75815;BME280;70031;45.570;14.228;2023-07-29T04:38:07;96898.47;;;14.77;100.00
75815;BME280;70031;45.570;14.228;2023-07-29T04:40:08;96892.44;;;14.88;100.00
75815;BME280;70031;45.570;14.228;2023-07-29T04:42:14;96884.47;;;14.92;100.00
75815;BME280;70031;45.570;14.228;2023-07-29T04:47:02;96895.22;;;15.14;100.00
75815;BME280;70031;45.570;14.228;2023-07-29T04:49:03;96896.50;;;15.17;100.00
75815;BME280;70031;45.570;14.228;2023-07-29T04:51:06;96902.22;;;15.07;100.00
75815;BME280;70031;45.570;14.228;2023-07-29T04:53:07;96897.91;;;15.06;100.00
75815;BME280;70031;45.570;14.228;2023-07-29T04:55:07;96898.75;;;15.15;100.00
75815;BME280;70031;45.570;14.228;2023-07-29T04:57:10;96886.94;;;15.20;100.00
75815;BME280;70031;45.570;14.228;2023-07-29T04:59:10;96878.13;;;15.14;100.00
75815;BME280;70031;45.570;14.228;2023-07-29T05:01:13;96881.97;;;15.13;100.00
75815;BME280;70031;45.570;14.228;2023-07-29T05:03:13;96885.34;;;15.18;100.00
75815;BME280;70031;45.570;14.228;2023-07-29T05:05:13;96881.34;;;15.07;100.00
75815;BME280;70031;45.570;14.228;2023-07-29T05:07:14;96895.50;;;15.04;100.00
75815;BME280;70031;45.570;14.228;2023-07-29T05:09:32;96891.03;;;15.00;100.00
75815;BME280;70031;45.570;14.228;2023-07-29T05:11:33;96890.69;;;14.93;100.00
75815;BME280;70031;45.570;14.228;2023-07-29T05:13:33;96895.69;;;15.08;100.00
75815;BME280;70031;45.570;14.228;2023-07-29T05:15:34;96884.53;;;15.18;100.00
75815;BME280;70031;45.570;14.228;2023-07-29T05:17:34;96881.38;;;15.25;100.00
75815;BME280;70031;45.570;14.228;2023-07-29T05:19:34;96888.72;;;15.24;100.00
75815;BME280;70031;45.570;14.228;2023-07-29T05:21:35;96884.22;;;15.28;100.00
75815;BME280;70031;45.570;14.228;2023-07-29T05:23:45;96885.34;;;15.27;100.00
75815;BME280;70031;45.570;14.228;2023-07-29T05:25:45;96878.34;;;15.35;100.00
75815;BME280;70031;45.570;14.228;2023-07-29T05:27:49;96882.50;;;15.41;100.00
75815;BME280;70031;45.570;14.228;2023-07-29T05:29:57;96882.66;;;15.44;100.00
75815;BME280;70031;45.570;14.228;2023-07-29T05:31:58;96877.56;;;15.52;100.00
75815;BME280;70031;45.570;14.228;2023-07-29T05:33:58;96882.97;;;15.52;100.00
75815;BME280;70031;45.570;14.228;2023-07-29T05:35:59;96877.44;;;15.74;100.00
75815;BME280;70031;45.570;14.228;2023-07-29T05:38:02;96885.41;;;15.70;100.00
75815;BME280;70031;45.570;14.228;2023-07-29T05:40:04;96884.91;;;15.86;100.00
75815;BME280;70031;45.570;14.228;2023-07-29T05:42:04;96885.88;;;15.98;100.00
75815;BME280;70031;45.570;14.228;2023-07-29T05:44:05;96888.06;;;16.05;100.00
75815;BME280;70031;45.570;14.228;2023-07-29T05:46:05;96889.38;;;16.08;100.00
75815;BME280;70031;45.570;14.228;2023-07-29T05:48:06;96893.63;;;16.35;100.00
75815;BME280;70031;45.570;14.228;2023-07-29T05:50:07;96888.63;;;16.45;100.00
75815;BME280;70031;45.570;14.228;2023-07-29T05:52:07;96882.88;;;16.55;100.00
75815;BME280;70031;45.570;14.228;2023-07-29T05:54:08;96884.88;;;16.67;100.00
75815;BME280;70031;45.570;14.228;2023-07-29T05:56:08;96874.47;;;16.78;100.00
75815;BME280;70031;45.570;14.228;2023-07-29T05:58:10;96882.28;;;16.88;100.00
75815;BME280;70031;45.570;14.228;2023-07-29T06:00:11;96881.41;;;16.96;100.00
75815;BME280;70031;45.570;14.228;2023-07-29T06:02:11;96874.88;;;16.97;100.00
75815;BME280;70031;45.570;14.228;2023-07-29T06:04:14;96876.25;;;17.03;100.00
75815;BME280;70031;45.570;14.228;2023-07-29T06:06:15;96873.22;;;17.05;100.00
75815;BME280;70031;45.570;14.228;2023-07-29T06:08:15;96877.31;;;16.90;100.00
75815;BME280;70031;45.570;14.228;2023-07-29T06:10:16;96872.75;;;16.73;100.00
75815;BME280;70031;45.570;14.228;2023-07-29T06:12:18;96880.91;;;16.73;100.00
75815;BME280;70031;45.570;14.228;2023-07-29T06:14:18;96891.66;;;16.99;100.00
75815;BME280;70031;45.570;14.228;2023-07-29T06:16:19;96891.38;;;17.22;100.00
75815;BME280;70031;45.570;14.228;2023-07-29T06:18:19;96888.25;;;17.32;100.00
75815;BME280;70031;45.570;14.228;2023-07-29T06:20:19;96887.19;;;17.45;100.00
75815;BME280;70031;45.570;14.228;2023-07-29T06:22:20;96885.00;;;17.59;100.00
75815;BME280;70031;45.570;14.228;2023-07-29T06:24:20;96887.81;;;17.92;100.00
75815;BME280;70031;45.570;14.228;2023-07-29T06:26:20;96890.41;;;17.47;100.00
75815;BME280;70031;45.570;14.228;2023-07-29T06:28:21;96889.09;;;17.45;100.00
75815;BME280;70031;45.570;14.228;2023-07-29T06:30:21;96896.69;;;17.39;100.00
75815;BME280;70031;45.570;14.228;2023-07-29T06:32:22;96899.53;;;17.42;100.00
75815;BME280;70031;45.570;14.228;2023-07-29T06:34:22;96898.66;;;17.80;100.00
75815;BME280;70031;45.570;14.228;2023-07-29T06:36:22;96896.19;;;17.87;100.00
75815;BME280;70031;45.570;14.228;2023-07-29T06:38:23;96898.09;;;17.66;100.00
75815;BME280;70031;45.570;14.228;2023-07-29T06:40:23;96902.13;;;17.60;100.00
75815;BME280;70031;45.570;14.228;2023-07-29T06:42:23;96902.75;;;17.86;100.00
75815;BME280;70031;45.570;14.228;2023-07-29T06:44:24;96900.03;;;18.19;100.00
75815;BME280;70031;45.570;14.228;2023-07-29T06:46:24;96893.97;;;18.35;100.00
75815;BME280;70031;45.570;14.228;2023-07-29T06:48:25;96894.63;;;18.32;100.00
75815;BME280;70031;45.570;14.228;2023-07-29T06:50:25;96893.66;;;18.61;100.00
75815;BME280;70031;45.570;14.228;2023-07-29T06:52:25;96891.69;;;18.82;100.00
75815;BME280;70031;45.570;14.228;2023-07-29T06:54:26;96892.13;;;19.08;100.00
75815;BME280;70031;45.570;14.228;2023-07-29T06:56:26;96903.25;;;19.40;99.57
75815;BME280;70031;45.570;14.228;2023-07-29T06:58:26;96896.88;;;19.36;100.00
75815;BME280;70031;45.570;14.228;2023-07-29T07:00:27;96899.47;;;19.69;100.00
75815;BME280;70031;45.570;14.228;2023-07-29T07:02:27;96902.31;;;19.73;95.79
75815;BME280;70031;45.570;14.228;2023-07-29T07:04:28;96897.19;;;19.71;94.81
75815;BME280;70031;45.570;14.228;2023-07-29T07:06:28;96888.22;;;19.58;96.15
75815;BME280;70031;45.570;14.228;2023-07-29T07:08:29;96898.28;;;18.81;100.00
75815;BME280;70031;45.570;14.228;2023-07-29T07:10:31;96887.38;;;18.93;100.00
75815;BME280;70031;45.570;14.228;2023-07-29T07:12:33;96889.19;;;19.14;100.00
75815;BME280;70031;45.570;14.228;2023-07-29T07:14:34;96887.59;;;19.13;100.00
75815;BME280;70031;45.570;14.228;2023-07-29T07:16:34;96883.59;;;19.34;100.00
75815;BME280;70031;45.570;14.228;2023-07-29T07:18:37;96884.63;;;19.30;96.93
75815;BME280;70031;45.570;14.228;2023-07-29T07:20:37;96879.25;;;19.46;99.18
75815;BME280;70031;45.570;14.228;2023-07-29T07:22:37;96877.97;;;19.68;100.00
75815;BME280;70031;45.570;14.228;2023-07-29T07:24:39;96881.88;;;19.95;98.22
75815;BME280;70031;45.570;14.228;2023-07-29T07:26:39;96874.44;;;20.23;97.22
75815;BME280;70031;45.570;14.228;2023-07-29T07:28:40;96872.66;;;20.15;94.55
75815;BME280;70031;45.570;14.228;2023-07-29T07:30:40;96867.72;;;20.48;89.80
75815;BME280;70031;45.570;14.228;2023-07-29T07:32:44;96869.84;;;20.55;87.01
75815;BME280;70031;45.570;14.228;2023-07-29T07:34:45;96860.06;;;20.70;88.62
75815;BME280;70031;45.570;14.228;2023-07-29T07:36:45;96864.63;;;20.50;89.18
75815;BME280;70031;45.570;14.228;2023-07-29T07:38:46;96867.56;;;20.57;89.82
75815;BME280;70031;45.570;14.228;2023-07-29T07:40:54;96872.66;;;20.74;88.02
75815;BME280;70031;45.570;14.228;2023-07-29T07:42:55;96870.19;;;21.01;89.02
75815;BME280;70031;45.570;14.228;2023-07-29T07:44:55;96875.41;;;21.57;85.99
75815;BME280;70031;45.570;14.228;2023-07-29T07:46:56;96872.91;;;21.87;80.35
75815;BME280;70031;45.570;14.228;2023-07-29T07:48:56;96871.28;;;22.44;81.20
75815;BME280;70031;45.570;14.228;2023-07-29T07:51:15;96866.81;;;22.59;79.28
75815;BME280;70031;45.570;14.228;2023-07-29T07:53:15;96876.16;;;22.54;81.69
75815;BME280;70031;45.570;14.228;2023-07-29T07:55:15;96874.97;;;22.32;82.00
75815;BME280;70031;45.570;14.228;2023-07-29T07:57:16;96870.97;;;22.72;80.19
75815;BME280;70031;45.570;14.228;2023-07-29T07:59:18;96866.94;;;23.95;78.97
75815;BME280;70031;45.570;14.228;2023-07-29T08:01:26;96859.66;;;24.09;73.31
75815;BME280;70031;45.570;14.228;2023-07-29T08:03:30;96869.19;;;23.86;74.69
75815;BME280;70031;45.570;14.228;2023-07-29T08:05:30;96860.31;;;22.90;78.58
75815;BME280;70031;45.570;14.228;2023-07-29T08:07:32;96858.97;;;22.80;77.60
75815;BME280;70031;45.570;14.228;2023-07-29T08:09:34;96849.72;;;22.88;78.27
75815;BME280;70031;45.570;14.228;2023-07-29T08:11:37;96847.31;;;23.96;78.02
75815;BME280;70031;45.570;14.228;2023-07-29T08:13:38;96845.03;;;24.02;71.64
75815;BME280;70031;45.570;14.228;2023-07-29T08:15:38;96846.50;;;23.92;73.59
75815;BME280;70031;45.570;14.228;2023-07-29T08:17:38;96845.56;;;23.81;74.05
75815;BME280;70031;45.570;14.228;2023-07-29T08:19:39;96843.84;;;24.03;73.40
75815;BME280;70031;45.570;14.228;2023-07-29T08:21:39;96851.03;;;24.11;73.31
75815;BME280;70031;45.570;14.228;2023-07-29T08:23:40;96841.75;;;24.26;72.49
75815;BME280;70031;45.570;14.228;2023-07-29T08:25:40;96839.63;;;24.13;69.38
75815;BME280;70031;45.570;14.228;2023-07-29T08:27:41;96843.56;;;23.78;71.38
75815;BME280;70031;45.570;14.228;2023-07-29T08:29:41;96835.38;;;24.56;71.65
75815;BME280;70031;45.570;14.228;2023-07-29T08:31:41;96828.44;;;24.69;72.36
75815;BME280;70031;45.570;14.228;2023-07-29T08:33:42;96827.47;;;23.80;73.04
75815;BME280;70031;45.570;14.228;2023-07-29T08:35:45;96828.03;;;24.30;68.06
75815;BME280;70031;45.570;14.228;2023-07-29T08:37:48;96823.84;;;24.87;68.41
75815;BME280;70031;45.570;14.228;2023-07-29T08:39:59;96822.63;;;24.33;65.90
75815;BME280;70031;45.570;14.228;2023-07-29T08:42:08;96823.03;;;24.39;69.70
75815;BME280;70031;45.570;14.228;2023-07-29T08:44:20;96817.91;;;24.37;68.93
75815;BME280;70031;45.570;14.228;2023-07-29T08:46:44;96817.63;;;24.13;63.97
75815;BME280;70031;45.570;14.228;2023-07-29T08:48:45;96821.09;;;24.84;72.40
75815;BME280;70031;45.570;14.228;2023-07-29T08:50:46;96824.56;;;25.29;68.30
75815;BME280;70031;45.570;14.228;2023-07-29T08:52:48;96822.69;;;25.43;64.93
75815;BME280;70031;45.570;14.228;2023-07-29T08:54:49;96831.13;;;25.75;64.82
75815;BME280;70031;45.570;14.228;2023-07-29T08:56:51;96827.78;;;25.41;65.38
75815;BME280;70031;45.570;14.228;2023-07-29T08:58:52;96826.38;;;25.07;64.76
75815;BME280;70031;45.570;14.228;2023-07-29T09:00:52;96834.22;;;25.05;60.19
75815;BME280;70031;45.570;14.228;2023-07-29T09:02:56;96829.75;;;25.41;62.11
75815;BME280;70031;45.570;14.228;2023-07-29T09:05:02;96829.16;;;25.76;60.71
75815;BME280;70031;45.570;14.228;2023-07-29T09:07:07;96826.63;;;25.42;59.19
75815;BME280;70031;45.570;14.228;2023-07-29T09:09:09;96828.47;;;26.00;64.86
75815;BME280;70031;45.570;14.228;2023-07-29T09:11:13;96829.22;;;25.97;64.99
75815;BME280;70031;45.570;14.228;2023-07-29T09:13:16;96834.34;;;25.92;60.48
75815;BME280;70031;45.570;14.228;2023-07-29T09:15:33;96827.97;;;25.77;60.69
75815;BME280;70031;45.570;14.228;2023-07-29T09:17:34;96830.88;;;26.30;60.40
75815;BME280;70031;45.570;14.228;2023-07-29T09:19:37;96830.59;;;26.82;62.07
75815;BME280;70031;45.570;14.228;2023-07-29T09:21:39;96825.47;;;26.70;56.25
75815;BME280;70031;45.570;14.228;2023-07-29T09:24:10;96819.84;;;26.20;56.96
75815;BME280;70031;45.570;14.228;2023-07-29T09:26:52;96815.59;;;26.44;61.71
75815;BME280;70031;45.570;14.228;2023-07-29T09:29:21;96801.69;;;27.47;60.82
75815;BME280;70031;45.570;14.228;2023-07-29T09:31:48;96811.69;;;28.18;57.30
75815;BME280;70031;45.570;14.228;2023-07-29T09:42:33;96812.34;;;27.52;60.32
75815;BME280;70031;45.570;14.228;2023-07-29T09:44:54;96813.59;;;27.33;52.85
75815;BME280;70031;45.570;14.228;2023-07-29T10:27:34;96811.63;;;27.20;58.34
75815;BME280;70031;45.570;14.228;2023-07-29T10:35:53;96804.94;;;26.92;56.48
75815;BME280;70031;45.570;14.228;2023-07-29T10:37:54;96817.16;;;26.41;57.82
75815;BME280;70031;45.570;14.228;2023-07-29T10:39:56;96823.06;;;26.43;57.92
75815;BME280;70031;45.570;14.228;2023-07-29T10:42:31;96808.84;;;27.41;61.81
75815;BME280;70031;45.570;14.228;2023-07-29T10:45:20;96813.53;;;27.51;59.80
75815;BME280;70031;45.570;14.228;2023-07-29T10:53:47;96797.31;;;27.64;58.54
75815;BME280;70031;45.570;14.228;2023-07-29T10:55:51;96803.25;;;27.59;54.36
75815;BME280;70031;45.570;14.228;2023-07-29T10:57:52;96797.69;;;27.73;57.29
75815;BME280;70031;45.570;14.228;2023-07-29T10:59:55;96804.06;;;26.20;59.20
75815;BME280;70031;45.570;14.228;2023-07-29T11:02:00;96809.59;;;26.17;61.59
75815;BME280;70031;45.570;14.228;2023-07-29T11:06:20;96792.34;;;26.52;61.59
75815;BME280;70031;45.570;14.228;2023-07-29T11:08:29;96799.84;;;26.66;59.14
75815;BME280;70031;45.570;14.228;2023-07-29T11:10:42;96791.13;;;26.85;54.48
75815;BME280;70031;45.570;14.228;2023-07-29T11:13:19;96792.47;;;27.93;53.94
75815;BME280;70031;45.570;14.228;2023-07-29T11:15:27;96785.84;;;27.62;52.41
75815;BME280;70031;45.570;14.228;2023-07-29T11:17:41;96791.53;;;26.91;54.88
75815;BME280;70031;45.570;14.228;2023-07-29T11:19:45;96786.81;;;26.77;58.53
75815;BME280;70031;45.570;14.228;2023-07-29T11:21:47;96797.06;;;26.76;60.04
75815;BME280;70031;45.570;14.228;2023-07-29T11:23:48;96790.34;;;26.92;53.10
75815;BME280;70031;45.570;14.228;2023-07-29T11:25:51;96781.69;;;26.82;56.40
75815;BME280;70031;45.570;14.228;2023-07-29T11:27:53;96791.56;;;26.66;54.12
75815;BME280;70031;45.570;14.228;2023-07-29T11:30:01;96790.28;;;26.17;56.99
75815;BME280;70031;45.570;14.228;2023-07-29T11:32:04;96789.84;;;26.00;60.42
75815;BME280;70031;45.570;14.228;2023-07-29T11:34:11;96791.44;;;26.01;64.95
75815;BME280;70031;45.570;14.228;2023-07-29T11:36:22;96785.56;;;26.24;67.69
75815;BME280;70031;45.570;14.228;2023-07-29T11:38:25;96772.56;;;26.96;72.33
75815;BME280;70031;45.570;14.228;2023-07-29T11:40:29;96768.22;;;27.24;56.93
75815;BME280;70031;45.570;14.228;2023-07-29T11:44:58;96773.06;;;27.96;57.12
75815;BME280;70031;45.570;14.228;2023-07-29T11:46:59;96773.22;;;27.68;55.04
75815;BME280;70031;45.570;14.228;2023-07-29T11:49:00;96768.31;;;28.01;56.85
75815;BME280;70031;45.570;14.228;2023-07-29T11:51:08;96767.94;;;27.95;56.54